createdAt,value
2023-01-08T00:03:27.081Z,27.38
2023-01-08T00:08:29.497Z,26.00
2023-01-08T00:13:30.960Z,25.35
2023-01-08T00:18:32.808Z,23.95
2023-01-08T00:23:35.548Z,25.50
2023-01-08T00:28:38.037Z,23.50
2023-01-08T00:33:40.655Z,23.35
2023-01-08T00:38:43.170Z,21.90
2023-01-08T00:43:44.635Z,20.95
2023-01-08T00:48:46.098Z,22.25
2023-01-08T00:53:47.512Z,23.95
2023-01-08T00:58:49.275Z,25.40
2023-01-08T01:03:50.719Z,23.75
2023-01-08T01:08:52.458Z,23.38
2023-01-08T01:13:57.485Z,24.17
2023-01-08T01:18:58.969Z,44.90
2023-01-08T01:24:03.141Z,39.25
2023-01-08T01:29:04.929Z,36.20
2023-01-08T01:34:06.409Z,33.60
2023-01-08T01:39:08.058Z,31.58
2023-01-08T01:44:46.760Z,29.80
2023-01-08T01:50:19.670Z,29.90
2023-01-08T01:55:21.137Z,28.83
2023-01-08T02:00:23.265Z,28.42
2023-01-08T02:05:32.806Z,28.98
2023-01-08T02:10:48.259Z,28.77
2023-01-08T02:16:06.144Z,28.67
2023-01-08T02:21:11.213Z,28.77
2023-01-08T02:26:29.575Z,28.40
2023-01-08T02:31:33.008Z,29.63
2023-01-08T02:36:55.181Z,29.92
2023-01-08T02:42:06.923Z,29.30
2023-01-08T02:47:15.847Z,29.17
2023-01-08T02:52:18.132Z,27.42
2023-01-08T02:57:20.699Z,29.50
2023-01-08T03:02:22.840Z,28.95
2023-01-08T03:07:24.337Z,29.92
2023-01-08T03:12:43.751Z,29.85
2023-01-08T03:22:54.520Z,26.85
2023-01-08T03:28:02.693Z,28.67
2023-01-08T03:33:06.160Z,30.02
2023-01-08T03:38:32.511Z,29.20
2023-01-08T03:43:34.005Z,31.13
2023-01-08T03:48:36.839Z,29.80
2023-01-08T03:53:38.482Z,30.73
2023-01-08T03:58:39.907Z,31.67
2023-01-08T04:03:41.336Z,30.92
2023-01-08T04:08:42.750Z,31.85
2023-01-08T04:13:44.247Z,36.72
2023-01-08T04:18:45.701Z,30.20
2023-01-08T04:23:47.582Z,30.27
2023-01-08T04:28:49.032Z,30.00
2023-01-08T04:33:50.487Z,28.80
2023-01-08T04:38:51.959Z,28.17
2023-01-08T04:43:53.379Z,29.05
2023-01-08T04:48:55.071Z,27.95
2023-01-08T04:53:57.679Z,27.88
2023-01-08T04:58:59.540Z,28.17
2023-01-08T05:04:02.810Z,29.92
2023-01-08T05:09:04.273Z,28.42
2023-01-08T05:14:05.712Z,26.55
2023-01-08T05:19:07.190Z,26.40
2023-01-08T05:24:09.459Z,25.83
2023-01-08T05:29:11.004Z,25.30
2023-01-08T05:34:12.483Z,28.17
2023-01-08T05:39:13.934Z,25.17
2023-01-08T05:44:15.358Z,26.65
2023-01-08T05:49:17.026Z,26.58
2023-01-08T05:54:18.600Z,28.52
2023-01-08T05:59:20.015Z,27.27
2023-01-08T06:04:21.545Z,24.63
2023-01-08T06:09:22.994Z,23.55
2023-01-08T06:14:24.751Z,23.33
2023-01-08T06:19:26.187Z,22.75
2023-01-08T06:24:27.592Z,24.15
2023-01-08T06:29:28.990Z,24.67
2023-01-08T06:34:30.448Z,21.45
2023-01-08T06:39:31.908Z,20.10
2023-01-08T06:44:33.325Z,22.77
2023-01-08T06:49:34.729Z,24.50
2023-01-08T06:54:36.245Z,24.70
2023-01-08T06:59:37.644Z,25.15
2023-01-08T07:04:39.105Z,24.92
2023-01-08T07:09:41.792Z,23.35
2023-01-08T07:14:43.229Z,19.58
2023-01-08T07:19:44.628Z,17.70
2023-01-08T07:24:46.031Z,25.63
2023-01-08T07:29:47.983Z,19.55
2023-01-08T07:34:49.405Z,20.35
2023-01-08T07:39:53.007Z,19.15
2023-01-08T07:44:54.416Z,17.27
2023-01-08T07:49:55.821Z,20.95
2023-01-08T07:54:57.317Z,22.80
2023-01-08T07:59:58.723Z,19.13
2023-01-08T08:05:00.188Z,13.90
2023-01-08T08:10:02.273Z,16.00
2023-01-08T08:15:04.078Z,16.63
2023-01-08T08:20:06.054Z,16.30
2023-01-08T08:25:07.930Z,15.48
2023-01-08T08:30:11.200Z,14.23
2023-01-08T08:35:12.643Z,15.05
2023-01-08T08:40:14.138Z,15.55
2023-01-08T08:45:15.571Z,14.95
2023-01-08T08:50:17.630Z,16.10
2023-01-08T08:55:19.228Z,16.50
2023-01-08T09:00:21.049Z,15.40
2023-01-08T09:05:22.474Z,15.23
2023-01-08T09:10:24.032Z,14.48
2023-01-08T09:15:25.499Z,15.68
2023-01-08T09:20:27.307Z,14.65
2023-01-08T09:25:29.259Z,14.48
2023-01-08T09:30:30.936Z,14.30
2023-01-08T09:35:33.260Z,14.38
2023-01-08T09:40:58.180Z,13.15
2023-01-08T09:46:03.923Z,12.95
2023-01-08T09:51:15.502Z,12.43
2023-01-08T09:56:18.943Z,11.30
2023-01-08T10:01:27.377Z,12.63
2023-01-08T10:06:28.956Z,10.97
2023-01-08T10:11:43.105Z,11.40
2023-01-08T10:16:48.075Z,12.73
2023-01-08T10:21:50.414Z,10.98
2023-01-08T10:26:53.744Z,9.23
2023-01-08T10:31:58.582Z,11.93
2023-01-08T10:37:00.548Z,9.55
2023-01-08T10:42:06.856Z,8.77
2023-01-08T10:47:18.290Z,8.45
2023-01-08T10:52:24.564Z,9.35
2023-01-08T10:57:30.907Z,8.50
2023-01-08T11:02:40.237Z,8.50
2023-01-08T11:07:42.443Z,7.03
2023-01-08T11:12:44.734Z,7.47
2023-01-08T11:17:46.615Z,9.23
2023-01-08T11:22:48.042Z,8.82
2023-01-08T11:27:51.445Z,9.45
2023-01-08T11:33:01.839Z,7.50
2023-01-08T11:38:06.152Z,9.65
2023-01-08T11:43:17.994Z,9.70
2023-01-08T11:48:29.785Z,7.93
2023-01-08T11:53:46.571Z,7.10
2023-01-08T11:59:13.125Z,7.38
2023-01-08T12:04:27.977Z,7.70
2023-01-08T12:09:35.544Z,8.75
2023-01-08T12:14:44.739Z,7.43
2023-01-08T12:20:11.453Z,8.82
2023-01-08T12:25:43.480Z,8.98
2023-01-08T12:31:09.546Z,9.35
2023-01-08T12:36:17.601Z,10.18
2023-01-08T12:41:19.617Z,9.98
2023-01-08T12:46:24.866Z,8.93
2023-01-08T12:51:37.159Z,9.13
2023-01-08T12:56:50.499Z,10.45
2023-01-08T13:02:04.999Z,9.77
2023-01-08T13:07:06.694Z,9.30
2023-01-08T13:12:09.080Z,9.80
2023-01-08T13:17:22.218Z,11.60
2023-01-08T13:22:25.240Z,11.20
2023-01-08T13:27:29.406Z,10.48
2023-01-08T13:32:47.868Z,11.13
2023-01-08T13:37:52.091Z,10.10
2023-01-08T13:42:53.603Z,11.90
2023-01-08T13:47:56.274Z,10.40
2023-01-08T13:53:00.131Z,10.43
2023-01-08T13:58:05.044Z,10.40
2023-01-08T14:03:30.951Z,10.70
2023-01-08T14:08:32.956Z,13.00
2023-01-08T14:13:35.635Z,11.35
2023-01-08T14:18:40.961Z,11.38
2023-01-08T14:23:46.534Z,11.07
2023-01-08T14:28:55.026Z,11.65
2023-01-08T14:33:59.114Z,12.17
2023-01-08T14:39:00.547Z,12.15
2023-01-08T14:44:02.556Z,12.30
2023-01-08T14:49:03.996Z,12.65
2023-01-08T14:54:08.528Z,13.63
2023-01-08T14:59:11.867Z,13.18
2023-01-08T15:04:18.908Z,13.15
2023-01-08T15:09:27.681Z,12.25
2023-01-08T15:14:39.054Z,14.57
2023-01-08T15:19:50.096Z,14.43
2023-01-08T15:25:17.057Z,13.52
2023-01-08T15:30:28.958Z,13.57
2023-01-08T15:35:30.366Z,14.48
2023-01-08T15:40:31.802Z,15.77
2023-01-08T15:45:33.456Z,16.05
2023-01-08T15:50:40.101Z,15.80
2023-01-08T15:55:43.707Z,13.23
2023-01-08T16:00:46.357Z,14.98
2023-01-08T16:05:47.833Z,16.30
2023-01-08T16:10:53.061Z,13.80
2023-01-08T16:15:55.824Z,15.15
2023-01-08T16:21:01.442Z,14.45
2023-01-08T16:26:10.256Z,14.40
2023-01-08T16:31:11.701Z,16.00
2023-01-08T16:36:13.156Z,14.90
2023-01-08T16:41:14.599Z,18.10
2023-01-08T16:46:18.025Z,15.65
2023-01-08T16:51:21.244Z,16.52
2023-01-08T16:56:22.796Z,16.25
2023-01-08T17:01:24.303Z,15.63
2023-01-08T17:06:25.769Z,15.23
2023-01-08T17:11:27.216Z,12.50
2023-01-08T17:16:29.475Z,15.05
2023-01-08T17:21:31.084Z,13.07
2023-01-08T17:26:32.723Z,14.10
2023-01-08T17:31:39.825Z,14.98
2023-01-08T17:36:41.821Z,13.80
2023-01-08T17:42:01.685Z,14.07
2023-01-08T17:47:03.107Z,14.00
2023-01-08T17:52:04.610Z,13.27
2023-01-08T17:57:06.041Z,13.40
2023-01-08T18:02:11.175Z,14.88
2023-01-08T18:07:12.748Z,13.00
2023-01-08T18:12:14.249Z,12.85
2023-01-08T18:17:15.763Z,13.50
2023-01-08T18:22:17.187Z,15.32
2023-01-08T18:27:18.656Z,15.40
2023-01-08T18:32:25.843Z,14.65
2023-01-08T18:37:27.402Z,13.80
2023-01-08T18:42:30.275Z,13.30
2023-01-08T18:47:31.774Z,13.80
2023-01-08T18:52:33.212Z,13.70
2023-01-08T18:57:34.707Z,14.30
2023-01-08T19:02:36.426Z,14.90
2023-01-08T19:07:38.013Z,16.83
2023-01-08T19:12:39.497Z,15.25
2023-01-08T19:17:40.925Z,16.75
2023-01-08T19:22:42.334Z,17.73
2023-01-08T19:27:43.828Z,20.52
2023-01-08T19:32:47.470Z,16.10
2023-01-08T19:37:48.965Z,14.82
2023-01-08T19:43:09.067Z,13.05
2023-01-08T19:48:10.485Z,14.90
2023-01-08T19:53:13.964Z,14.85
2023-01-08T19:58:18.547Z,15.38
2023-01-08T20:03:28.931Z,16.45
2023-01-08T20:08:30.337Z,17.45
2023-01-08T20:13:33.946Z,17.95
2023-01-08T20:18:35.970Z,16.73
2023-01-08T20:23:38.190Z,18.52
2023-01-08T20:28:40.002Z,18.60
2023-01-08T20:33:42.555Z,15.07
2023-01-08T20:38:45.016Z,17.30
2023-01-08T20:43:46.531Z,20.13
2023-01-08T20:48:48.440Z,19.42
2023-01-08T20:53:50.085Z,17.60
2023-01-08T20:58:51.614Z,19.25
2023-01-08T21:03:55.333Z,19.25
2023-01-08T21:08:59.572Z,18.40
2023-01-08T21:14:01.931Z,19.35
2023-01-08T21:19:03.958Z,20.45
2023-01-08T21:24:07.182Z,19.25
2023-01-08T21:29:09.059Z,19.40
2023-01-08T21:34:11.583Z,25.67
2023-01-08T21:39:13.269Z,24.52
2023-01-08T21:44:41.284Z,21.23
2023-01-08T21:49:43.515Z,20.83
2023-01-08T21:54:44.990Z,20.75
2023-01-08T21:59:49.287Z,20.73
2023-01-08T22:04:53.950Z,19.48
2023-01-08T22:09:55.617Z,18.98
2023-01-08T22:14:57.530Z,20.75
2023-01-08T22:20:00.296Z,19.83
2023-01-08T22:25:01.780Z,19.42
2023-01-08T22:30:04.227Z,19.35
2023-01-08T22:35:06.022Z,19.92
2023-01-08T22:40:07.980Z,18.58
2023-01-08T22:45:10.254Z,19.85
2023-01-08T22:50:12.281Z,24.17
2023-01-08T22:55:13.822Z,45.45
2023-01-08T23:00:15.655Z,38.08
2023-01-08T23:05:17.159Z,34.78
2023-01-08T23:10:18.758Z,21.88
2023-01-08T23:15:21.348Z,17.77
2023-01-08T23:20:24.848Z,18.92
2023-01-08T23:25:27.947Z,18.25
2023-01-08T23:30:31.460Z,19.55
2023-01-08T23:35:32.878Z,20.58
2023-01-08T23:40:34.316Z,20.95
2023-01-08T23:45:37.477Z,20.23
2023-01-08T23:50:38.947Z,17.95
2023-01-08T23:55:41.323Z,17.65
